createdAt,value
2018-09-19T00:03:36.061Z,19.54
2018-09-19T00:08:32.772Z,19.52
2018-09-19T00:13:28.031Z,19.55
2018-09-19T00:18:24.063Z,19.39
2018-09-19T00:23:20.008Z,19.41
2018-09-19T00:28:16.140Z,19.33
2018-09-19T00:33:12.726Z,19.34
2018-09-19T00:38:09.539Z,19.49
2018-09-19T00:43:06.292Z,19.51
2018-09-19T00:48:01.922Z,19.49
2018-09-19T00:52:58.006Z,19.37
2018-09-19T00:57:54.131Z,19.45
2018-09-19T01:02:50.542Z,19.40
2018-09-19T01:07:46.394Z,19.39
2018-09-19T01:12:42.430Z,19.27
2018-09-19T01:17:39.303Z,19.31
2018-09-19T01:22:34.719Z,19.37
2018-09-19T01:27:30.791Z,19.29
2018-09-19T01:32:28.146Z,19.19
2018-09-19T01:37:23.986Z,19.15
2018-09-19T01:42:19.895Z,19.08
2018-09-19T01:47:15.710Z,19.08
2018-09-19T01:52:12.281Z,19.08
2018-09-19T01:57:08.153Z,19.14
2018-09-19T02:02:04.086Z,18.86
2018-09-19T02:06:59.741Z,18.96
2018-09-19T02:16:56.082Z,18.89
2018-09-19T02:21:52.185Z,18.93
2018-09-19T02:26:48.531Z,18.83
2018-09-19T02:31:44.137Z,18.88
2018-09-19T02:36:39.932Z,18.83
2018-09-19T02:41:36.048Z,18.74
2018-09-19T02:46:31.571Z,18.60
2018-09-19T02:51:27.646Z,18.47
2018-09-19T02:56:23.569Z,18.60
2018-09-19T03:01:20.345Z,18.52
2018-09-19T03:06:15.826Z,18.62
2018-09-19T03:11:11.996Z,18.55
2018-09-19T03:16:07.914Z,18.47
2018-09-19T03:21:03.810Z,18.45
2018-09-19T03:25:59.630Z,18.40
2018-09-19T03:30:55.474Z,18.38
2018-09-19T03:35:52.537Z,18.53
2018-09-19T03:40:48.141Z,18.29
2018-09-19T03:45:43.724Z,18.29
2018-09-19T03:50:39.607Z,18.13
2018-09-19T03:55:35.524Z,18.04
2018-09-19T04:00:32.304Z,18.05
2018-09-19T04:05:27.734Z,18.04
2018-09-19T04:10:24.540Z,17.92
2018-09-19T04:15:20.842Z,17.82
2018-09-19T04:20:16.749Z,17.80
2018-09-19T04:25:12.943Z,17.79
2018-09-19T04:30:08.362Z,17.76
2018-09-19T04:35:03.939Z,17.72
2018-09-19T04:40:00.263Z,17.63
2018-09-19T04:44:56.241Z,17.60
2018-09-19T04:49:51.827Z,17.67
2018-09-19T04:54:48.950Z,17.74
2018-09-19T04:59:44.595Z,17.67
2018-09-19T05:04:40.455Z,17.70
2018-09-19T05:09:37.386Z,17.64
2018-09-19T05:14:33.906Z,17.67
2018-09-19T05:19:29.517Z,17.65
2018-09-19T05:24:25.805Z,17.54
2018-09-19T05:29:21.710Z,17.63
2018-09-19T05:34:17.607Z,17.56
2018-09-19T05:39:15.224Z,17.63
2018-09-19T05:44:10.933Z,17.64
2018-09-19T05:49:07.041Z,17.60
2018-09-19T05:54:03.177Z,17.56
2018-09-19T05:58:59.149Z,17.60
2018-09-19T06:03:55.067Z,17.64
2018-09-19T06:08:51.267Z,17.63
2018-09-19T06:13:47.494Z,17.80
2018-09-19T06:18:43.831Z,17.82
2018-09-19T06:23:39.733Z,17.65
2018-09-19T06:28:35.641Z,17.72
2018-09-19T06:33:31.709Z,17.87
2018-09-19T06:38:28.659Z,18.07
2018-09-19T06:43:24.294Z,18.44
2018-09-19T06:48:20.324Z,18.50
2018-09-19T06:53:17.627Z,18.70
2018-09-19T06:58:13.261Z,18.80
2018-09-19T07:03:10.656Z,18.90
2018-09-19T07:08:07.229Z,18.81
2018-09-19T07:13:02.860Z,18.83
2018-09-19T07:17:58.740Z,18.96
2018-09-19T07:22:54.513Z,19.11
2018-09-19T07:27:51.445Z,19.24
2018-09-19T07:32:47.537Z,19.39
2018-09-19T07:37:44.044Z,19.58
2018-09-19T07:42:40.845Z,19.91
2018-09-19T07:47:36.792Z,20.02
2018-09-19T07:52:33.638Z,20.25
2018-09-19T07:57:29.563Z,20.41
2018-09-19T08:02:27.032Z,20.80
2018-09-19T08:07:23.083Z,21.02
2018-09-19T08:12:19.394Z,21.25
2018-09-19T08:17:15.459Z,21.35
2018-09-19T08:22:12.438Z,21.48
2018-09-19T08:27:08.254Z,21.73
2018-09-19T08:32:04.460Z,21.75
2018-09-19T08:37:00.519Z,21.85
2018-09-19T08:41:56.485Z,21.93
2018-09-19T08:46:52.492Z,22.13
2018-09-19T08:51:48.495Z,22.23
2018-09-19T08:56:45.331Z,22.39
2018-09-19T09:01:41.146Z,22.45
2018-09-19T09:06:37.218Z,22.60
2018-09-19T09:11:33.263Z,22.90
2018-09-19T09:16:29.271Z,23.05
2018-09-19T09:21:25.347Z,23.10
2018-09-19T09:26:22.354Z,23.28
2018-09-19T09:31:17.979Z,23.48
2018-09-19T09:36:14.210Z,23.80
2018-09-19T09:41:10.580Z,24.03
2018-09-19T09:46:08.028Z,23.99
2018-09-19T09:51:04.152Z,24.48
2018-09-19T09:56:00.748Z,24.53
2018-09-19T10:00:56.849Z,24.68
2018-09-19T10:05:52.779Z,24.70
2018-09-19T10:10:48.750Z,24.95
2018-09-19T10:15:44.903Z,25.07
2018-09-19T10:20:41.533Z,25.18
2018-09-19T10:25:38.395Z,25.38
2018-09-19T10:30:34.143Z,25.41
2018-09-19T10:35:30.779Z,25.68
2018-09-19T10:40:27.258Z,25.77
2018-09-19T10:45:23.537Z,25.88
2018-09-19T10:50:19.509Z,26.10
2018-09-19T10:55:15.902Z,26.09
2018-09-19T11:00:11.919Z,26.02
2018-09-19T11:05:08.820Z,26.48
2018-09-19T11:10:06.145Z,26.99
2018-09-19T11:15:02.287Z,26.80
2018-09-19T11:19:59.869Z,26.81
2018-09-19T11:24:56.580Z,26.66
2018-09-19T11:29:52.374Z,26.66
2018-09-19T11:34:47.855Z,26.41
2018-09-19T11:39:44.317Z,26.40
2018-09-19T11:44:40.642Z,26.44
2018-09-19T11:49:37.681Z,26.55
2018-09-19T11:54:33.763Z,26.78
2018-09-19T11:59:30.597Z,27.11
2018-09-19T12:04:27.160Z,27.15
2018-09-19T12:09:24.272Z,27.21
2018-09-19T12:14:19.668Z,27.08
2018-09-19T12:19:15.410Z,26.84
2018-09-19T12:24:10.810Z,26.77
2018-09-19T12:29:07.337Z,26.53
2018-09-19T12:34:02.561Z,26.59
2018-09-19T12:38:59.549Z,26.60
2018-09-19T12:43:56.202Z,26.77
2018-09-19T12:48:51.897Z,26.80
2018-09-19T12:53:47.685Z,26.62
2018-09-19T12:58:43.798Z,26.68
2018-09-19T13:03:39.731Z,26.68
2018-09-19T13:08:36.837Z,26.81
2018-09-19T13:13:32.279Z,26.75
2018-09-19T13:18:29.271Z,26.80
2018-09-19T13:23:25.006Z,26.81
2018-09-19T13:28:21.163Z,27.00
2018-09-19T13:33:17.445Z,26.99
2018-09-19T13:38:13.506Z,27.05
2018-09-19T13:43:09.558Z,27.10
2018-09-19T13:48:05.474Z,27.18
2018-09-19T13:53:01.843Z,27.22
2018-09-19T13:57:58.731Z,27.29
2018-09-19T14:02:54.639Z,27.22
2018-09-19T14:07:51.646Z,27.35
2018-09-19T14:12:47.328Z,27.37
2018-09-19T14:17:44.871Z,27.33
2018-09-19T14:22:40.725Z,27.33
2018-09-19T14:27:36.739Z,27.40
2018-09-19T14:32:32.613Z,27.35
2018-09-19T14:37:29.773Z,27.35
2018-09-19T14:42:25.634Z,27.40
2018-09-19T14:47:22.751Z,27.39
2018-09-19T14:52:20.030Z,27.27
2018-09-19T14:57:15.521Z,27.20
2018-09-19T15:02:11.559Z,27.15
2018-09-19T15:07:08.566Z,27.20
2018-09-19T15:12:04.298Z,27.18
2018-09-19T15:17:00.252Z,27.14
2018-09-19T15:21:56.264Z,27.21
2018-09-19T15:26:52.758Z,27.17
2018-09-19T15:31:49.045Z,27.18
2018-09-19T15:36:45.083Z,27.03
2018-09-19T15:41:40.961Z,27.08
2018-09-19T15:46:38.248Z,27.12
2018-09-19T15:51:34.045Z,27.08
2018-09-19T15:56:30.155Z,26.99
2018-09-19T16:01:26.346Z,27.05
2018-09-19T16:06:22.800Z,26.97
2018-09-19T16:11:18.615Z,26.89
2018-09-19T16:16:15.195Z,26.73
2018-09-19T16:21:11.975Z,26.73
2018-09-19T16:26:07.676Z,26.68
2018-09-19T16:31:03.695Z,26.58
2018-09-19T16:35:59.695Z,26.55
2018-09-19T16:40:55.606Z,26.55
2018-09-19T16:45:51.568Z,26.58
2018-09-19T16:50:47.760Z,26.33
2018-09-19T16:55:43.539Z,26.26
2018-09-19T17:00:39.481Z,26.07
2018-09-19T17:05:36.744Z,26.00
2018-09-19T17:15:32.924Z,25.68
2018-09-19T17:20:29.644Z,25.53
2018-09-19T17:25:25.035Z,25.32
2018-09-19T17:30:20.979Z,25.32
2018-09-19T17:35:16.762Z,25.04
2018-09-19T17:40:12.651Z,24.96
2018-09-19T17:45:08.427Z,24.88
2018-09-19T17:50:05.682Z,24.76
2018-09-19T17:55:02.151Z,24.58
2018-09-19T17:59:57.688Z,24.43
2018-09-19T18:04:53.457Z,24.32
2018-09-19T18:09:49.257Z,24.13
2018-09-19T18:14:45.460Z,24.11
2018-09-19T18:19:42.427Z,24.02
2018-09-19T18:24:38.112Z,23.96
2018-09-19T18:29:34.997Z,23.91
2018-09-19T18:34:31.759Z,23.83
2018-09-19T18:39:27.397Z,23.78
2018-09-19T18:44:23.319Z,23.66
2018-09-19T18:49:19.133Z,23.58
2018-09-19T18:54:15.001Z,23.32
2018-09-19T18:59:11.228Z,23.27
2018-09-19T19:04:07.943Z,23.27
2018-09-19T19:09:03.969Z,23.21
2018-09-19T19:13:59.947Z,23.06
2018-09-19T19:18:56.685Z,23.05
2018-09-19T19:23:52.385Z,22.88
2018-09-19T19:28:48.565Z,22.75
2018-09-19T19:33:44.431Z,22.66
2018-09-19T19:38:40.243Z,22.60
2018-09-19T19:43:36.056Z,22.51
2018-09-19T19:48:31.949Z,22.48
2018-09-19T19:53:27.680Z,22.35
2018-09-19T19:58:23.696Z,22.30
2018-09-19T20:03:20.611Z,22.18
2018-09-19T20:08:16.199Z,22.14
2018-09-19T20:13:12.069Z,22.04
2018-09-19T20:18:08.151Z,21.93
2018-09-19T20:23:04.088Z,21.83
2018-09-19T20:27:59.959Z,21.79
2018-09-19T20:32:55.730Z,21.73
2018-09-19T20:37:51.769Z,21.73
2018-09-19T20:42:48.527Z,21.64
2018-09-19T20:47:44.225Z,21.69
2018-09-19T20:52:40.170Z,21.62
2018-09-19T20:57:35.761Z,21.45
2018-09-19T21:02:32.595Z,21.42
2018-09-19T21:07:28.871Z,21.45
2018-09-19T21:12:24.712Z,21.45
2018-09-19T21:17:20.541Z,21.42
2018-09-19T21:22:16.663Z,21.32
2018-09-19T21:27:12.886Z,21.30
2018-09-19T21:32:08.899Z,21.32
2018-09-19T21:37:04.853Z,21.29
2018-09-19T21:42:01.165Z,21.27
2018-09-19T21:46:57.813Z,21.20
2018-09-19T21:51:53.468Z,21.12
2018-09-19T21:56:50.068Z,21.11
2018-09-19T22:01:45.943Z,20.97
2018-09-19T22:06:41.809Z,20.81
2018-09-19T22:11:38.737Z,20.66
2018-09-19T22:16:35.918Z,20.72
2018-09-19T22:21:31.640Z,20.70
2018-09-19T22:26:28.759Z,20.52
2018-09-19T22:31:25.314Z,20.60
2018-09-19T22:36:21.762Z,20.60
2018-09-19T22:41:18.306Z,20.52
2018-09-19T22:46:13.831Z,20.55
2018-09-19T22:51:10.830Z,20.59
2018-09-19T22:56:06.489Z,20.51
2018-09-19T23:01:02.387Z,20.50
2018-09-19T23:05:58.798Z,20.41
2018-09-19T23:10:55.432Z,20.44
2018-09-19T23:15:50.984Z,20.43
2018-09-19T23:20:48.006Z,20.37
2018-09-19T23:25:43.599Z,20.37
2018-09-19T23:30:40.503Z,20.29
2018-09-19T23:35:36.084Z,20.37
2018-09-19T23:40:31.952Z,20.26
2018-09-19T23:45:27.922Z,20.24
2018-09-19T23:50:24.207Z,20.21
2018-09-19T23:55:21.079Z,20.00
